Hemavan, Hemavan Airport (ESUT)

NameHemavan Airport
CityHemavan
CountrySweden
ICAOESUT
IATAHMV
Altitude458 m
CoordinatesGoogle Map
Live Air TrafficLiveATC.net
METARESUT 130450Z AUTO 00000KT 9999 -SN NCD M21/M24 Q1029
2018-12-13 04:50:00 Wind: North (0°) 0 m/s - Visibility: > 10000 m - Weather: Light Snow - Temperature: -21 °C - Dew point: -24 °C - Humidity: 76.9% - Pressure: 1029 hPa

Sorry, no flights used the airport in this database.